createdAt,value
2023-05-19T00:00:35.091Z,83.4798
2023-05-19T00:01:35.171Z,83.4963
2023-05-19T00:02:36.423Z,83.4939
2023-05-19T00:03:37.877Z,83.4780
2023-05-19T00:04:39.954Z,83.4760
2023-05-19T00:05:41.831Z,83.4715
2023-05-19T00:06:43.072Z,83.4680
2023-05-19T00:07:44.575Z,83.4621
2023-05-19T00:08:45.840Z,83.4783
2023-05-19T00:09:47.632Z,83.4964
2023-05-19T00:10:49.751Z,83.5355
2023-05-19T00:11:51.456Z,83.5608
2023-05-19T00:12:53.869Z,83.5771
2023-05-19T00:13:53.142Z,83.5996
2023-05-19T00:14:53.672Z,83.6029
2023-05-19T00:15:55.637Z,83.6000
2023-05-19T00:16:57.303Z,83.5976
2023-05-19T00:17:58.310Z,83.5848
2023-05-19T00:18:59.318Z,83.5753
2023-05-19T00:22:02.910Z,83.5104
2023-05-19T00:23:03.955Z,83.4929
2023-05-19T00:24:06.690Z,83.4694
2023-05-19T00:25:08.371Z,83.4449
2023-05-19T00:26:09.995Z,83.4297
2023-05-19T00:27:10.861Z,83.4151
2023-05-19T00:28:12.647Z,83.3939
2023-05-19T00:29:14.263Z,83.3828
2023-05-19T00:30:16.181Z,83.3727
2023-05-19T00:31:16.431Z,83.3579
2023-05-19T00:32:18.382Z,83.3457
2023-05-19T00:35:21.785Z,83.3034
2023-05-19T00:36:22.808Z,83.3104
2023-05-19T00:37:23.870Z,83.3052
2023-05-19T00:38:25.762Z,83.3014
2023-05-19T00:39:27.444Z,83.2907
2023-05-19T00:40:28.560Z,83.2790
2023-05-19T00:41:30.535Z,83.2639
2023-05-19T00:42:30.814Z,83.2366
2023-05-19T00:43:31.697Z,83.1957
2023-05-19T00:44:32.412Z,83.1679
2023-05-19T00:45:34.263Z,83.1436
2023-05-19T00:47:42.680Z,83.0928
2023-05-19T00:49:05.549Z,82.8902
2023-05-19T00:50:06.970Z,83.0044
2023-05-19T00:51:08.887Z,83.0182
2023-05-19T00:52:09.924Z,83.0087
2023-05-19T00:54:12.461Z,82.9650
2023-05-19T00:55:13.397Z,82.9225
2023-05-19T00:56:15.184Z,82.8987
2023-05-19T00:57:16.527Z,82.8850
2023-05-19T00:58:17.850Z,82.8725
2023-05-19T00:59:19.209Z,82.8571
2023-05-19T01:00:21.465Z,82.8410
2023-05-19T01:06:27.875Z,82.8337
2023-05-19T01:07:28.094Z,82.7991
2023-05-19T01:08:29.212Z,82.7537
2023-05-19T01:09:31.721Z,82.6804
2023-05-19T01:10:34.203Z,82.6120
2023-05-19T01:12:35.853Z,82.4707
2023-05-19T01:13:38.651Z,82.4032
2023-05-19T01:14:38.562Z,82.3283
2023-05-19T01:15:39.377Z,82.2582
2023-05-19T01:16:40.211Z,82.1771
2023-05-19T01:17:41.382Z,82.1127
2023-05-19T01:18:42.525Z,82.0435
2023-05-19T01:19:44.183Z,81.9845
2023-05-19T01:20:45.770Z,81.9266
2023-05-19T01:21:46.733Z,81.8693
2023-05-19T01:22:47.509Z,81.8260
2023-05-19T01:23:48.675Z,81.7897
2023-05-19T01:25:50.895Z,81.7498
2023-05-19T01:26:52.477Z,81.7409
2023-05-19T01:27:53.661Z,81.7279
2023-05-19T01:28:55.883Z,81.7317
2023-05-19T01:29:57.876Z,81.7340
2023-05-19T01:30:59.793Z,81.7339
2023-05-19T01:31:59.849Z,81.7336
2023-05-19T01:33:01.625Z,81.7327
2023-05-19T01:35:01.220Z,81.7600
2023-05-19T01:36:02.256Z,81.7958
2023-05-19T01:37:03.386Z,81.8269
2023-05-19T01:38:05.549Z,81.8499
2023-05-19T01:39:06.231Z,81.8652
2023-05-19T01:41:07.313Z,81.8464
2023-05-19T01:42:08.127Z,81.8393
2023-05-19T01:44:10.769Z,81.8271
2023-05-19T01:45:12.581Z,81.8217
2023-05-19T01:49:15.993Z,81.7878
2023-05-19T01:50:16.717Z,81.7726
2023-05-19T01:51:17.193Z,81.7596
2023-05-19T01:52:19.097Z,81.7388
2023-05-19T01:53:20.990Z,81.7300
2023-05-19T01:54:22.290Z,81.7358
2023-05-19T01:55:24.317Z,81.7552
2023-05-19T01:56:26.600Z,81.7724
2023-05-19T01:57:27.569Z,81.7808
2023-05-19T01:58:28.863Z,81.7876
2023-05-19T01:59:31.727Z,81.8004
2023-05-19T02:01:32.386Z,81.8329
2023-05-19T02:02:32.576Z,81.8409
2023-05-19T02:03:33.204Z,81.8576
2023-05-19T02:04:35.766Z,81.9299
2023-05-19T02:05:36.872Z,81.9953
2023-05-19T02:06:37.694Z,82.0800
2023-05-19T02:09:42.783Z,82.2332
2023-05-19T02:10:43.354Z,82.2481
2023-05-19T02:11:44.542Z,82.2689
2023-05-19T02:12:44.658Z,82.2932
2023-05-19T02:13:45.626Z,82.3092
2023-05-19T02:14:46.654Z,82.3174
2023-05-19T02:15:47.727Z,82.3071
2023-05-19T02:16:48.925Z,82.2907
2023-05-19T02:17:51.008Z,82.2736
2023-05-19T02:23:55.271Z,82.2320
2023-05-19T02:24:56.437Z,82.2298
2023-05-19T02:26:59.912Z,82.2202
2023-05-19T02:28:01.674Z,82.2024
2023-05-19T02:29:03.281Z,82.1941
2023-05-19T02:30:04.518Z,82.1909
2023-05-19T02:31:07.173Z,82.1762
2023-05-19T02:33:07.684Z,82.1352
2023-05-19T02:34:08.445Z,82.1098
2023-05-19T02:35:09.742Z,82.0794
2023-05-19T02:36:11.296Z,82.0560
2023-05-19T02:37:13.191Z,82.0439
2023-05-19T02:38:14.837Z,82.0387
2023-05-19T02:39:16.690Z,82.0220
2023-05-19T02:40:18.137Z,82.0131
2023-05-19T02:41:20.270Z,82.0359
2023-05-19T02:43:21.657Z,82.0558
2023-05-19T02:44:22.445Z,82.0462
2023-05-19T02:45:24.037Z,82.0218
2023-05-19T02:46:25.817Z,82.0208
2023-05-19T02:47:27.615Z,82.0304
2023-05-19T02:48:29.284Z,82.0384
2023-05-19T02:49:30.598Z,82.0452
2023-05-19T03:02:34.978Z,82.0963
2023-05-19T03:05:38.129Z,82.1546
2023-05-19T03:07:39.296Z,82.2012
2023-05-19T03:08:42.335Z,82.2126
2023-05-19T03:09:41.536Z,82.2064
2023-05-19T03:10:42.315Z,82.1782
2023-05-19T03:11:44.855Z,82.1466
2023-05-19T03:12:46.002Z,82.1198
2023-05-19T03:13:46.504Z,82.1005
2023-05-19T03:14:46.772Z,82.0990
2023-05-19T03:15:48.899Z,82.0875
2023-05-19T03:16:50.399Z,82.0631
2023-05-19T03:17:51.448Z,82.0497
2023-05-19T03:19:52.826Z,81.9819
2023-05-19T03:20:53.862Z,81.9196
2023-05-19T03:22:57.098Z,81.8051
2023-05-19T03:23:57.908Z,81.7200
2023-05-19T03:24:59.343Z,81.6248
2023-05-19T03:26:02.232Z,81.5341
2023-05-19T03:33:06.938Z,80.8608
2023-05-19T03:34:08.348Z,80.7526
2023-05-19T03:35:09.149Z,80.6223
2023-05-19T03:36:10.110Z,80.5064
2023-05-19T03:37:12.276Z,80.3819
2023-05-19T03:38:14.146Z,80.2774
2023-05-19T03:42:47.299Z,79.8801
2023-05-19T03:43:48.368Z,79.9481
2023-05-19T03:46:52.708Z,80.0568
2023-05-19T03:47:54.517Z,80.0379
2023-05-19T03:48:54.962Z,80.0473
2023-05-19T03:49:56.172Z,80.0739
2023-05-19T03:50:57.394Z,80.0632
2023-05-19T03:51:59.433Z,79.9983
2023-05-19T03:53:00.289Z,79.9055
2023-05-19T03:54:01.343Z,79.8251
2023-05-19T03:55:02.594Z,79.7496
2023-05-19T03:56:04.279Z,79.6936
2023-05-19T03:57:06.115Z,79.6621
2023-05-19T03:58:07.315Z,79.6539
2023-05-19T03:59:08.395Z,79.6301
2023-05-19T04:00:09.703Z,79.6192
2023-05-19T04:01:10.849Z,79.6755
2023-05-19T04:02:12.832Z,79.7915
2023-05-19T04:03:14.338Z,79.9048
2023-05-19T04:04:15.833Z,79.9882
2023-05-19T04:05:17.260Z,80.0510
2023-05-19T04:06:19.008Z,80.1183
2023-05-19T04:07:20.467Z,80.1913
2023-05-19T04:08:23.506Z,80.2654
2023-05-19T04:11:25.471Z,80.5031
2023-05-19T04:12:27.001Z,80.5651
2023-05-19T04:13:28.039Z,80.6224
2023-05-19T04:15:31.341Z,80.7052
2023-05-19T04:16:32.295Z,80.7176
2023-05-19T04:18:32.839Z,80.7150
2023-05-19T04:19:34.619Z,80.7128
2023-05-19T04:21:34.972Z,80.7613
2023-05-19T04:22:36.115Z,80.8346
2023-05-19T04:24:37.959Z,81.0340
2023-05-19T04:25:38.497Z,81.1305
2023-05-19T04:26:39.668Z,81.2181
2023-05-19T04:27:41.195Z,81.3045
2023-05-19T04:28:43.528Z,81.3978
2023-05-19T04:30:44.288Z,81.5740
2023-05-19T04:31:44.639Z,81.6731
2023-05-19T04:33:45.536Z,81.8665
2023-05-19T04:34:47.321Z,81.9864
2023-05-19T04:39:53.649Z,82.4983
2023-05-19T04:40:55.523Z,82.6062
2023-05-19T04:41:58.030Z,82.7070
2023-05-19T04:42:58.672Z,82.7942
2023-05-19T04:44:00.925Z,82.8928
2023-05-19T04:45:01.727Z,82.9562
2023-05-19T04:46:02.754Z,83.0476
2023-05-19T04:48:05.513Z,83.1784
2023-05-19T04:49:07.817Z,83.2354
2023-05-19T04:51:07.668Z,83.3113
2023-05-19T04:52:08.891Z,83.3770
2023-05-19T04:53:10.475Z,83.4401
2023-05-19T04:54:11.835Z,83.4659
2023-05-19T04:55:12.974Z,83.5044
2023-05-19T04:56:15.038Z,83.5351
2023-05-19T04:57:17.221Z,83.5914
2023-05-19T04:58:19.104Z,83.6415
2023-05-19T04:59:20.205Z,83.6962
2023-05-19T05:00:23.237Z,83.7408
2023-05-19T05:02:23.980Z,83.8703
2023-05-19T05:03:25.597Z,83.9233
2023-05-19T05:04:26.608Z,83.9741
2023-05-19T05:05:28.208Z,84.0333
2023-05-19T05:06:29.763Z,84.1020
2023-05-19T05:08:31.015Z,84.2424
2023-05-19T05:09:33.531Z,84.2916
2023-05-19T05:10:35.705Z,84.3478
2023-05-19T05:11:35.804Z,84.3967
2023-05-19T05:12:37.412Z,84.4471
2023-05-19T05:13:39.098Z,84.5157
2023-05-19T05:15:41.823Z,84.6512
2023-05-19T05:16:43.625Z,84.7190
2023-05-19T05:17:45.492Z,84.7685
2023-05-19T05:18:47.279Z,84.8263
2023-05-19T05:19:48.618Z,84.8746
2023-05-19T05:20:49.718Z,84.9194
2023-05-19T05:21:52.341Z,84.9709
2023-05-19T05:26:57.352Z,85.1134
2023-05-19T05:27:58.996Z,85.1127
2023-05-19T05:28:59.912Z,85.1126
2023-05-19T05:32:03.529Z,85.0365
2023-05-19T05:33:04.576Z,84.9923
2023-05-19T05:34:05.392Z,84.9315
2023-05-19T05:35:06.614Z,84.8790
2023-05-19T05:36:08.393Z,84.8477
2023-05-19T05:37:08.891Z,84.8151
2023-05-19T05:38:11.336Z,84.7933
2023-05-19T05:39:12.827Z,84.8107
2023-05-19T05:40:14.754Z,84.8426
2023-05-19T05:41:14.875Z,84.8956
2023-05-19T05:42:17.237Z,84.9572
2023-05-19T05:43:16.935Z,85.0265
2023-05-19T05:44:17.706Z,85.0976
2023-05-19T05:46:20.321Z,85.2840
2023-05-19T05:48:21.814Z,85.3864
2023-05-19T05:49:24.333Z,85.4138
2023-05-19T05:50:24.543Z,85.4447
2023-05-19T05:53:26.442Z,85.4613
2023-05-19T05:55:28.152Z,85.4918
2023-05-19T05:56:29.569Z,85.5095
2023-05-19T05:57:29.716Z,85.5290
2023-05-19T05:58:31.460Z,85.5328
2023-05-19T05:59:33.076Z,85.5124
2023-05-19T06:00:34.846Z,85.4715
2023-05-19T06:01:35.702Z,85.4281
2023-05-19T06:02:37.523Z,85.3930
2023-05-19T06:03:37.576Z,85.3731
2023-05-19T06:04:39.677Z,85.3714
2023-05-19T06:05:42.075Z,85.3521
2023-05-19T06:09:59.969Z,85.1143
2023-05-19T06:11:16.974Z,84.7971
2023-05-19T06:12:18.033Z,84.8861
2023-05-19T06:13:18.240Z,84.8854
2023-05-19T06:14:20.725Z,84.8750
2023-05-19T06:15:22.112Z,84.8943
2023-05-19T06:16:23.471Z,84.9034
2023-05-19T06:17:25.228Z,84.9159
2023-05-19T06:18:26.949Z,84.9367
2023-05-19T06:19:28.844Z,84.9643
2023-05-19T06:20:29.726Z,84.9746
2023-05-19T06:21:31.420Z,84.9905
2023-05-19T06:23:32.201Z,84.9492
2023-05-19T06:24:34.373Z,84.8676
2023-05-19T06:25:34.850Z,84.7835
2023-05-19T06:26:35.222Z,84.6902
2023-05-19T06:27:37.848Z,84.5531
2023-05-19T06:28:38.488Z,84.4713
2023-05-19T06:29:39.934Z,84.4652
2023-05-19T06:30:42.858Z,84.4937
2023-05-19T06:31:44.803Z,84.5217
2023-05-19T06:37:51.846Z,84.7581
2023-05-19T06:38:53.473Z,84.7726
2023-05-19T06:39:54.403Z,84.7777
2023-05-19T06:40:56.175Z,84.7632
2023-05-19T06:41:58.494Z,84.7609
2023-05-19T06:43:00.534Z,84.7508
2023-05-19T06:44:02.708Z,84.7415
2023-05-19T06:45:03.777Z,84.7496
2023-05-19T06:46:05.766Z,84.7627
2023-05-19T06:47:07.652Z,84.7852
2023-05-19T06:48:07.606Z,84.8037
2023-05-19T06:49:09.069Z,84.8155
2023-05-19T06:50:10.680Z,84.8328
2023-05-19T06:51:12.816Z,84.8269
2023-05-19T06:52:14.262Z,84.8302
2023-05-19T06:53:15.245Z,84.8088
2023-05-19T06:54:16.511Z,84.7752
2023-05-19T06:55:17.634Z,84.7303
2023-05-19T06:56:18.659Z,84.6941
2023-05-19T06:57:32.869Z,84.6760
2023-05-19T06:58:50.657Z,0.0000
2023-05-19T06:59:51.327Z,0.0000
2023-05-19T07:00:52.117Z,0.0000
2023-05-19T07:01:52.487Z,0.0000
2023-05-19T07:02:53.239Z,0.0000
2023-05-19T07:12:57.818Z,0.0000
2023-05-19T07:15:59.369Z,0.0000
2023-05-19T07:21:02.352Z,0.0000
2023-05-19T07:23:02.617Z,0.0000
2023-05-19T07:24:04.031Z,0.0000
2023-05-19T07:25:04.752Z,0.0000
2023-05-19T07:26:05.261Z,0.0000
2023-05-19T07:29:12.357Z,0.0000
2023-05-19T07:31:06.680Z,0.0000
2023-05-19T07:32:07.579Z,0.0000
2023-05-19T07:33:08.429Z,0.0000
2023-05-19T07:34:08.814Z,0.0000
2023-05-19T07:35:09.554Z,0.0000
2023-05-19T07:36:09.622Z,0.0000
2023-05-19T07:37:10.065Z,0.0000
2023-05-19T07:38:10.924Z,0.0000
2023-05-19T07:39:11.820Z,0.0000
2023-05-19T07:40:12.789Z,0.0000
2023-05-19T07:41:13.680Z,0.0000
2023-05-19T07:42:14.391Z,0.0000
2023-05-19T07:43:15.328Z,0.0000
2023-05-19T07:44:16.203Z,0.0000
2023-05-19T07:45:16.630Z,0.0000
2023-05-19T07:52:20.055Z,0.0000
2023-05-19T07:53:20.853Z,0.0000
2023-05-19T07:55:21.905Z,0.0000
2023-05-19T08:00:23.037Z,0.0000
2023-05-19T08:01:24.019Z,0.0000
2023-05-19T08:02:24.878Z,0.0000
2023-05-19T08:03:25.661Z,0.0000
2023-05-19T08:04:25.750Z,0.0000
2023-05-19T08:05:27.329Z,0.0000
2023-05-19T08:09:29.206Z,0.0000
2023-05-19T08:10:29.561Z,0.0000
2023-05-19T08:11:30.457Z,0.0000
2023-05-19T08:16:31.794Z,0.0000
2023-05-19T08:17:32.457Z,0.0000
2023-05-19T08:18:33.081Z,0.0000
2023-05-19T08:19:33.598Z,0.0000
2023-05-19T08:20:34.305Z,0.0000
2023-05-19T08:26:37.763Z,0.0000
2023-05-19T08:27:36.536Z,0.0000
2023-05-19T08:28:37.372Z,0.0000
2023-05-19T08:29:38.283Z,0.0000
2023-05-19T08:30:38.842Z,0.0000
2023-05-19T08:31:39.830Z,0.0000
2023-05-19T08:32:40.765Z,0.0000
2023-05-19T08:33:41.033Z,0.0000
2023-05-19T08:34:42.038Z,0.0000
2023-05-19T08:36:42.945Z,0.0000
2023-05-19T08:37:44.507Z,0.0000
2023-05-19T08:42:45.537Z,0.0000
2023-05-19T08:43:45.611Z,0.0000
2023-05-19T08:45:01.185Z,0.0000
2023-05-19T08:56:28.579Z,79.3583
2023-05-19T08:57:30.019Z,79.3844
2023-05-19T08:58:30.557Z,79.4036
2023-05-19T09:01:33.183Z,79.3814
2023-05-19T09:03:34.276Z,79.1380
2023-05-19T09:04:34.890Z,79.0320
2023-05-19T09:05:36.693Z,78.9097
2023-05-19T09:06:38.065Z,78.8458
2023-05-19T09:07:40.111Z,78.7610
2023-05-19T09:08:40.828Z,78.6416
2023-05-19T09:09:41.575Z,78.4639
2023-05-19T09:10:42.551Z,78.2961
2023-05-19T09:11:42.991Z,78.1548
2023-05-19T09:12:45.049Z,78.0205
2023-05-19T09:13:46.193Z,77.9220
2023-05-19T09:14:48.029Z,77.8470
2023-05-19T09:15:48.389Z,77.6933
2023-05-19T09:16:49.519Z,77.5475
2023-05-19T09:17:50.576Z,77.4797
2023-05-19T09:18:50.987Z,77.4364
2023-05-19T09:19:52.949Z,77.2980
2023-05-19T09:20:53.200Z,77.1877
2023-05-19T09:21:55.246Z,77.1202
2023-05-19T09:22:55.245Z,77.1268
2023-05-19T09:23:56.616Z,77.1663
2023-05-19T09:24:56.597Z,77.1339
2023-05-19T09:25:58.162Z,76.9483
2023-05-19T09:27:00.031Z,76.3736
2023-05-19T09:28:00.335Z,76.0114
2023-05-19T09:30:01.038Z,75.8871
2023-05-19T09:31:03.307Z,75.8554
2023-05-19T09:32:03.424Z,75.6861
2023-05-19T09:33:05.762Z,75.5355
2023-05-19T09:34:05.654Z,75.4887
2023-05-19T09:35:06.075Z,75.3757
2023-05-19T09:36:06.791Z,74.9043
2023-05-19T09:37:08.483Z,74.4567
2023-05-19T09:38:09.947Z,74.2590
2023-05-19T09:39:10.518Z,74.2406
2023-05-19T09:40:13.031Z,74.3685
2023-05-19T09:41:11.775Z,74.4917
2023-05-19T09:42:13.988Z,74.6758
2023-05-19T09:43:15.971Z,74.9253
2023-05-19T09:44:17.480Z,75.2285
2023-05-19T09:45:18.194Z,75.4129
2023-05-19T09:46:20.002Z,75.6075
2023-05-19T09:47:22.099Z,75.8199
2023-05-19T09:48:22.820Z,75.9605
2023-05-19T09:49:24.293Z,75.9633
2023-05-19T09:50:25.329Z,75.9079
2023-05-19T09:51:26.202Z,75.8173
2023-05-19T09:52:27.503Z,75.8090
2023-05-19T09:53:29.607Z,75.8697
2023-05-19T09:54:31.330Z,75.9404
2023-05-19T09:56:32.640Z,75.8895
2023-05-19T09:57:34.502Z,75.7898
2023-05-19T09:58:36.715Z,75.7260
2023-05-19T09:59:37.689Z,75.6598
2023-05-19T10:00:38.560Z,75.5903
2023-05-19T10:01:40.832Z,75.5165
2023-05-19T10:02:41.296Z,75.4094
2023-05-19T10:03:41.728Z,75.2555
2023-05-19T10:04:42.472Z,75.0052
2023-05-19T10:05:42.762Z,75.0053
2023-05-19T10:06:43.597Z,75.0868
2023-05-19T10:07:45.232Z,75.2105
2023-05-19T10:08:47.357Z,75.2504
2023-05-19T10:09:48.043Z,75.2119
2023-05-19T10:10:48.655Z,75.1113
2023-05-19T10:11:49.219Z,75.0173
2023-05-19T10:12:50.188Z,74.9671
2023-05-19T10:13:51.010Z,74.8520
2023-05-19T10:15:58.229Z,74.5826
2023-05-19T10:16:53.029Z,74.4807
2023-05-19T10:17:54.022Z,74.4059
2023-05-19T10:18:54.540Z,74.3258
2023-05-19T10:19:54.765Z,74.2524
2023-05-19T10:20:55.470Z,74.2759
2023-05-19T10:21:55.680Z,74.2150
2023-05-19T10:22:56.252Z,74.1043
2023-05-19T10:24:58.165Z,73.8011
2023-05-19T10:25:59.275Z,73.7841
2023-05-19T10:27:00.465Z,73.7354
2023-05-19T10:28:02.467Z,73.5878
2023-05-19T10:29:02.722Z,73.3823
2023-05-19T10:30:03.838Z,73.1460
2023-05-19T10:31:05.406Z,72.8573
2023-05-19T10:32:06.192Z,72.4964
2023-05-19T10:33:07.606Z,72.1682
2023-05-19T10:34:08.550Z,71.9785
2023-05-19T10:35:09.791Z,71.8984
2023-05-19T10:36:10.757Z,72.0551
2023-05-19T10:37:10.962Z,72.2753
2023-05-19T10:38:11.543Z,72.5131
2023-05-19T10:39:13.462Z,72.5965
2023-05-19T10:40:13.703Z,72.6597
2023-05-19T10:41:14.820Z,72.6441
2023-05-19T10:42:15.650Z,72.5762
2023-05-19T10:43:17.094Z,72.4450
2023-05-19T10:44:17.329Z,72.3947
2023-05-19T10:45:19.127Z,72.3154
2023-05-19T10:46:20.591Z,72.2540
2023-05-19T10:47:21.227Z,72.2658
2023-05-19T10:48:21.571Z,72.3806
2023-05-19T10:49:22.294Z,72.4941
2023-05-19T10:50:22.607Z,72.3518
2023-05-19T10:51:23.467Z,72.0548
2023-05-19T10:52:23.857Z,71.9756
2023-05-19T10:53:24.745Z,71.8910
2023-05-19T10:54:25.444Z,71.9380
2023-05-19T10:55:26.044Z,71.8049
2023-05-19T10:56:28.333Z,71.6918
2023-05-19T10:57:28.879Z,71.7485
2023-05-19T10:58:31.061Z,71.7798
2023-05-19T10:59:32.151Z,71.8044
2023-05-19T11:00:34.328Z,71.7847
2023-05-19T11:01:34.966Z,71.7666
2023-05-19T11:02:35.370Z,71.8016
2023-05-19T11:03:36.961Z,71.8312
2023-05-19T11:04:37.275Z,71.6699
2023-05-19T11:05:37.920Z,71.5490
2023-05-19T11:06:37.978Z,71.5170
2023-05-19T11:07:38.404Z,71.4633
2023-05-19T11:08:39.109Z,71.3971
2023-05-19T11:09:40.686Z,71.1543
2023-05-19T11:10:42.323Z,70.8128
2023-05-19T11:11:44.408Z,70.4474
2023-05-19T11:12:45.548Z,70.0769
2023-05-19T11:13:46.310Z,69.3261
2023-05-19T11:14:46.344Z,68.2908
2023-05-19T11:15:47.241Z,67.7465
2023-05-19T11:17:47.614Z,69.0544
2023-05-19T11:18:47.737Z,69.5121
2023-05-19T11:19:48.256Z,69.5712
2023-05-19T11:20:49.049Z,69.5608
2023-05-19T11:21:49.567Z,69.7741
2023-05-19T11:22:49.854Z,70.0863
2023-05-19T11:23:50.182Z,70.3266
2023-05-19T11:24:50.909Z,70.4455
2023-05-19T11:25:52.645Z,70.4651
2023-05-19T11:26:53.270Z,70.4712
2023-05-19T11:27:55.216Z,70.3358
2023-05-19T11:28:55.600Z,70.0791
2023-05-19T11:29:55.914Z,69.7134
2023-05-19T11:30:56.548Z,68.9784
2023-05-19T11:31:57.000Z,66.3002
2023-05-19T11:32:57.701Z,64.9455
2023-05-19T11:33:59.208Z,65.5000
2023-05-19T11:34:59.223Z,66.0391
2023-05-19T11:36:01.310Z,66.4957
2023-05-19T11:37:02.882Z,66.4628
2023-05-19T11:38:03.657Z,66.4694
2023-05-19T11:39:05.102Z,66.9376
2023-05-19T11:40:06.797Z,67.4967
2023-05-19T11:41:08.034Z,68.1102
2023-05-19T11:42:09.419Z,68.5418
2023-05-19T11:43:10.050Z,68.8458
2023-05-19T11:44:11.021Z,69.1676
2023-05-19T11:45:11.766Z,69.3256
2023-05-19T11:46:13.293Z,69.3528
2023-05-19T11:47:14.613Z,69.2707
2023-05-19T11:48:16.540Z,68.9521
2023-05-19T11:49:17.813Z,68.6416
2023-05-19T11:50:19.013Z,68.3971
2023-05-19T11:51:19.180Z,68.2800
2023-05-19T11:52:19.571Z,68.0928
2023-05-19T11:53:20.770Z,67.9359
2023-05-19T11:54:22.759Z,67.8240
2023-05-19T11:55:23.648Z,67.7859
2023-05-19T11:56:24.083Z,67.6962
2023-05-19T11:57:26.094Z,67.5957
2023-05-19T11:58:26.883Z,67.5789
2023-05-19T11:59:27.540Z,67.4242
2023-05-19T12:00:28.852Z,67.2322
2023-05-19T12:01:29.584Z,67.0515
2023-05-19T12:02:30.019Z,67.0524
2023-05-19T12:03:30.740Z,67.0364
2023-05-19T12:04:31.325Z,66.9406
2023-05-19T12:05:36.654Z,66.8642
2023-05-19T12:09:05.147Z,66.2797
2023-05-19T12:10:05.997Z,66.2158
2023-05-19T12:11:07.533Z,66.1540
2023-05-19T12:12:07.798Z,66.0138
2023-05-19T12:13:09.405Z,65.6892
2023-05-19T12:14:11.098Z,65.5436
2023-05-19T12:15:13.177Z,65.0077
2023-05-19T12:16:14.738Z,65.0552
2023-05-19T12:17:14.930Z,65.0599
2023-05-19T12:18:14.936Z,64.9579
2023-05-19T12:19:15.652Z,64.9336
2023-05-19T12:20:16.491Z,64.9029
2023-05-19T12:21:17.135Z,64.9819
2023-05-19T12:22:17.816Z,64.9113
2023-05-19T12:23:18.223Z,64.8304
2023-05-19T12:24:19.169Z,64.6820
2023-05-19T12:25:20.089Z,64.7113
2023-05-19T12:26:20.413Z,64.6417
2023-05-19T12:27:20.754Z,64.5509
2023-05-19T12:28:20.738Z,64.4440
2023-05-19T12:29:21.595Z,64.4047
2023-05-19T12:30:21.978Z,64.4615
2023-05-19T12:31:23.261Z,64.4451
2023-05-19T12:32:24.962Z,64.3395
2023-05-19T12:33:26.444Z,64.2904
2023-05-19T12:34:27.252Z,63.9956
2023-05-19T12:35:29.076Z,63.8889
2023-05-19T12:36:30.574Z,63.5727
2023-05-19T12:37:31.618Z,63.3912
2023-05-19T12:38:32.584Z,63.2373
2023-05-19T12:39:33.562Z,63.2281
2023-05-19T12:40:35.087Z,63.2510
2023-05-19T12:41:35.462Z,63.1141
2023-05-19T12:42:35.633Z,63.0125
2023-05-19T12:43:36.647Z,63.0786
2023-05-19T12:45:39.571Z,63.2092
2023-05-19T12:46:40.224Z,63.2392
2023-05-19T12:47:41.910Z,62.7124
2023-05-19T12:48:42.364Z,62.3691
2023-05-19T12:49:43.779Z,62.2234
2023-05-19T12:50:44.523Z,62.3338
2023-05-19T12:51:46.724Z,62.3562
2023-05-19T12:52:46.921Z,62.2014
2023-05-19T12:53:48.670Z,62.2639
2023-05-19T12:54:49.861Z,62.3279
2023-05-19T12:55:50.840Z,62.5317
2023-05-19T12:56:51.860Z,61.6121
2023-05-19T12:57:52.077Z,61.2683
2023-05-19T12:58:52.113Z,61.6434
2023-05-19T12:59:54.587Z,62.1746
2023-05-19T13:01:55.149Z,62.7863
2023-05-19T13:02:55.492Z,61.3046
2023-05-19T13:03:56.144Z,59.6684
2023-05-19T13:04:57.313Z,60.0927
2023-05-19T13:05:59.112Z,60.6674
2023-05-19T13:06:59.590Z,61.7232
2023-05-19T13:08:01.322Z,61.7261
2023-05-19T13:09:02.838Z,61.7744
2023-05-19T13:10:04.236Z,62.5044
2023-05-19T13:11:04.945Z,62.8601
2023-05-19T13:12:06.273Z,63.1335
2023-05-19T13:13:06.500Z,62.9863
2023-05-19T13:16:11.332Z,61.0385
2023-05-19T13:17:11.722Z,61.4621
2023-05-19T13:18:12.350Z,61.8048
2023-05-19T13:19:24.285Z,61.8336
2023-05-19T13:20:43.446Z,62.2501
2023-05-19T13:21:44.537Z,62.1861
2023-05-19T13:22:45.823Z,62.1259
2023-05-19T13:23:47.564Z,62.0486
2023-05-19T13:24:47.878Z,61.9012
2023-05-19T13:25:49.382Z,62.4413
2023-05-19T13:26:50.238Z,62.8517
2023-05-19T13:27:51.754Z,63.2147
2023-05-19T13:28:51.905Z,63.0623
2023-05-19T13:29:53.184Z,63.1853
2023-05-19T13:30:54.253Z,63.6179
2023-05-19T13:31:55.222Z,63.8979
2023-05-19T13:32:56.815Z,63.7676
2023-05-19T13:33:57.389Z,63.6894
2023-05-19T13:34:58.174Z,63.9155
2023-05-19T13:35:59.305Z,64.2009
2023-05-19T13:37:00.054Z,63.5874
2023-05-19T13:38:01.300Z,63.8181
2023-05-19T13:39:02.495Z,63.8331
2023-05-19T13:40:02.819Z,63.8354
2023-05-19T13:41:03.060Z,63.6094
2023-05-19T13:42:03.921Z,63.3487
2023-05-19T13:43:05.264Z,63.5457
2023-05-19T13:44:05.537Z,63.7566
2023-05-19T13:45:07.752Z,64.0204
2023-05-19T13:46:08.859Z,63.4544
2023-05-19T13:47:10.434Z,63.7534
2023-05-19T13:48:11.094Z,64.0571
2023-05-19T13:49:12.125Z,64.1197
2023-05-19T13:50:12.945Z,64.3201
2023-05-19T13:51:13.483Z,64.3823
2023-05-19T13:52:14.261Z,64.1707
2023-05-19T13:54:14.476Z,64.7715
2023-05-19T13:55:16.129Z,65.0167
2023-05-19T13:56:17.086Z,65.0441
2023-05-19T13:57:17.618Z,65.1789
2023-05-19T13:58:18.078Z,65.3351
2023-05-19T13:59:18.398Z,65.5090
2023-05-19T14:00:20.138Z,65.1947
2023-05-19T14:01:21.508Z,65.2202
2023-05-19T14:02:22.484Z,65.4080
2023-05-19T14:03:22.798Z,65.6004
2023-05-19T14:04:24.941Z,65.7637
2023-05-19T14:05:25.154Z,65.9856
2023-05-19T14:06:26.950Z,66.1702
2023-05-19T14:07:27.947Z,66.2450
2023-05-19T14:08:28.589Z,66.3124
2023-05-19T14:09:29.954Z,66.3002
2023-05-19T14:10:31.192Z,66.3433
2023-05-19T14:11:32.532Z,66.4116
2023-05-19T14:12:43.674Z,66.5057
2023-05-19T14:14:04.438Z,66.4917
2023-05-19T14:15:05.125Z,66.7173
2023-05-19T14:16:05.611Z,66.8734
2023-05-19T14:17:06.266Z,66.9216
2023-05-19T14:18:07.447Z,66.9835
2023-05-19T14:19:07.407Z,67.1172
2023-05-19T14:20:07.524Z,67.1760
2023-05-19T14:21:07.826Z,67.0799
2023-05-19T14:22:09.725Z,67.2481
2023-05-19T14:23:11.090Z,67.3271
2023-05-19T14:25:12.743Z,67.6615
2023-05-19T14:26:12.914Z,67.7958
2023-05-19T14:27:14.358Z,67.8592
2023-05-19T14:29:14.494Z,67.7965
2023-05-19T14:30:14.909Z,67.8380
2023-05-19T14:31:16.781Z,67.9734
2023-05-19T14:32:17.490Z,68.0971
2023-05-19T14:33:19.040Z,68.2226
2023-05-19T14:34:20.123Z,68.3435
2023-05-19T14:35:20.548Z,68.3391
2023-05-19T14:36:21.140Z,68.0999
2023-05-19T14:37:23.161Z,67.8719
2023-05-19T14:38:26.047Z,67.9698
2023-05-19T14:39:25.561Z,67.9737
2023-05-19T14:40:25.564Z,67.9052
2023-05-19T14:41:25.655Z,67.9894
2023-05-19T14:42:26.699Z,68.1550
2023-05-19T14:43:27.764Z,68.2146
2023-05-19T14:44:29.210Z,68.3092
2023-05-19T14:45:29.381Z,68.4234
2023-05-19T14:46:29.831Z,68.5440
2023-05-19T14:47:31.140Z,68.5693
2023-05-19T14:48:31.763Z,68.5978
2023-05-19T14:49:31.827Z,68.6376
2023-05-19T14:50:32.223Z,68.8229
2023-05-19T14:51:32.690Z,69.0243
2023-05-19T14:52:33.217Z,69.0914
2023-05-19T14:53:34.119Z,69.1918
2023-05-19T14:54:34.789Z,69.3319
2023-05-19T14:55:36.290Z,69.4466
2023-05-19T14:56:36.825Z,69.5624
2023-05-19T14:57:37.670Z,69.4562
2023-05-19T14:58:38.336Z,69.3176
2023-05-19T14:59:39.337Z,69.2660
2023-05-19T15:00:39.426Z,69.2814
2023-05-19T15:01:40.312Z,69.1888
2023-05-19T15:02:40.758Z,69.2134
2023-05-19T15:03:42.499Z,69.2968
2023-05-19T15:04:44.366Z,69.4092
2023-05-19T15:05:44.555Z,69.5098
2023-05-19T15:06:48.071Z,69.5887
2023-05-19T15:07:45.078Z,69.6544
2023-05-19T15:08:45.932Z,69.6778
2023-05-19T15:09:46.381Z,69.6914
2023-05-19T15:10:46.859Z,69.6297
2023-05-19T15:11:47.529Z,69.6033
2023-05-19T15:12:48.008Z,69.6868
2023-05-19T15:14:49.033Z,69.7013
2023-05-19T15:15:49.091Z,69.6294
2023-05-19T15:16:50.622Z,69.6312